createdAt,value
2023-02-10T00:01:59.797Z,27.25
2023-02-10T00:07:02.597Z,21.50
2023-02-10T00:12:06.039Z,24.75
2023-02-10T00:17:10.243Z,23.60
2023-02-10T00:22:12.980Z,26.50
2023-02-10T00:27:15.814Z,21.25
2023-02-10T00:32:20.151Z,20.25
2023-02-10T00:37:23.013Z,19.50
2023-02-10T00:42:27.915Z,27.50
2023-02-10T00:47:32.066Z,22.25
2023-02-10T00:52:36.469Z,23.00
2023-02-10T00:57:39.196Z,23.00
2023-02-10T01:02:43.298Z,21.50
2023-02-10T01:07:46.051Z,26.25
2023-02-10T01:12:48.932Z,24.25
2023-02-10T01:17:54.166Z,22.00
2023-02-10T01:22:57.088Z,19.00
2023-02-10T01:28:01.080Z,23.25
2023-02-10T01:33:05.387Z,19.50
2023-02-10T01:38:08.159Z,17.50
2023-02-10T01:43:16.043Z,20.75
2023-02-10T01:48:20.308Z,19.75
2023-02-10T01:53:24.638Z,18.50
2023-02-10T01:58:29.935Z,20.50
2023-02-10T02:03:34.317Z,18.25
2023-02-10T02:08:38.636Z,23.00
2023-02-10T02:13:55.743Z,19.75
2023-02-10T02:19:07.776Z,18.50
2023-02-10T02:24:42.508Z,17.50
2023-02-10T02:30:22.225Z,17.50
2023-02-10T02:35:30.003Z,14.75
2023-02-10T02:40:32.854Z,19.25
2023-02-10T02:45:51.119Z,17.75
2023-02-10T02:51:06.180Z,22.25
2023-02-10T02:56:22.232Z,19.00
2023-02-10T03:01:31.553Z,15.00
2023-02-10T03:06:36.180Z,16.75
2023-02-10T03:11:39.108Z,16.00
2023-02-10T03:16:41.976Z,16.75
2023-02-10T03:21:46.240Z,14.75
2023-02-10T03:26:48.990Z,17.25
2023-02-10T03:31:51.971Z,18.25
2023-02-10T03:36:56.136Z,16.75
2023-02-10T03:41:59.145Z,18.75
2023-02-10T03:47:01.895Z,16.00
2023-02-10T03:52:06.226Z,17.00
2023-02-10T03:57:09.030Z,13.50
2023-02-10T04:02:11.941Z,14.25
2023-02-10T04:07:16.051Z,15.00
2023-02-10T04:12:18.840Z,14.25
2023-02-10T04:17:21.594Z,18.00
2023-02-10T04:22:25.925Z,15.00
2023-02-10T04:27:28.777Z,14.00
2023-02-10T04:32:31.713Z,13.00
2023-02-10T04:37:35.821Z,12.00
2023-02-10T04:42:39.249Z,14.50
2023-02-10T04:47:42.084Z,18.00
2023-02-10T04:52:46.221Z,14.50
2023-02-10T04:57:48.995Z,11.75
2023-02-10T05:02:51.789Z,15.25
2023-02-10T05:07:55.925Z,11.75
2023-02-10T05:12:58.732Z,14.50
2023-02-10T05:18:01.532Z,13.50
2023-02-10T05:23:05.629Z,11.50
2023-02-10T05:28:08.408Z,12.25
2023-02-10T05:33:11.176Z,10.75
2023-02-10T05:38:15.261Z,10.50
2023-02-10T05:43:18.091Z,14.25
2023-02-10T05:48:21.163Z,10.75
2023-02-10T05:53:25.261Z,15.00
2023-02-10T05:58:28.931Z,12.25
2023-02-10T06:03:31.704Z,12.25
2023-02-10T06:08:35.936Z,13.25
2023-02-10T06:13:39.283Z,13.50
2023-02-10T06:18:43.300Z,13.50
2023-02-10T06:23:47.471Z,10.50
2023-02-10T06:28:50.357Z,11.50
2023-02-10T06:33:53.249Z,10.75
2023-02-10T06:38:57.369Z,12.00
2023-02-10T06:44:00.254Z,12.25
2023-02-10T06:49:03.394Z,15.00
2023-02-10T06:54:07.618Z,11.50
2023-02-10T06:59:10.395Z,10.75
2023-02-10T07:04:13.160Z,10.75
2023-02-10T07:09:17.424Z,10.25
2023-02-10T07:14:20.277Z,10.00
2023-02-10T07:19:23.138Z,12.50
2023-02-10T07:24:27.459Z,9.00
2023-02-10T07:29:30.452Z,11.50
2023-02-10T07:34:35.073Z,11.25
2023-02-10T07:39:39.203Z,8.75
2023-02-10T07:44:42.494Z,9.50
2023-02-10T07:49:45.314Z,10.75
2023-02-10T07:54:49.491Z,11.75
2023-02-10T07:59:52.509Z,9.00
2023-02-10T08:04:56.517Z,12.00
2023-02-10T08:10:01.135Z,49.40
2023-02-10T08:15:04.114Z,57.60
2023-02-10T08:20:08.523Z,55.40
2023-02-10T08:25:12.677Z,50.20
2023-02-10T08:30:15.635Z,46.80
2023-02-10T08:35:19.052Z,44.80
2023-02-10T08:40:23.186Z,40.80
2023-02-10T08:45:26.568Z,31.40
2023-02-10T08:50:29.619Z,33.00
2023-02-10T08:55:33.802Z,33.20
2023-02-10T09:00:37.037Z,26.40
2023-02-10T09:05:39.837Z,25.50
2023-02-10T09:10:45.103Z,20.75
2023-02-10T09:15:48.237Z,22.75
2023-02-10T09:20:51.184Z,24.25
2023-02-10T09:25:59.846Z,25.00
2023-02-10T09:31:02.664Z,15.00
2023-02-10T09:36:07.148Z,18.00
2023-02-10T09:41:21.982Z,19.50
2023-02-10T09:46:37.257Z,16.75
2023-02-10T09:51:52.892Z,15.75
2023-02-10T09:56:57.650Z,14.00
2023-02-10T10:02:05.007Z,106.80
2023-02-10T10:07:19.433Z,199.40
2023-02-10T10:12:23.625Z,238.00
2023-02-10T10:17:48.018Z,233.40
2023-02-10T10:22:58.446Z,264.33
2023-02-10T10:28:15.353Z,299.67
2023-02-10T10:33:24.132Z,292.00
2023-02-10T10:38:31.960Z,342.00
2023-02-10T10:43:44.253Z,300.67
2023-02-10T10:48:47.277Z,274.00
2023-02-10T10:53:52.380Z,240.33
2023-02-10T10:58:56.491Z,225.60
2023-02-10T11:04:05.714Z,216.40
2023-02-10T11:09:22.115Z,208.20
2023-02-10T11:14:29.204Z,198.80
2023-02-10T11:19:47.413Z,183.40
2023-02-10T11:24:54.114Z,177.20
2023-02-10T11:30:00.063Z,179.40
2023-02-10T11:35:06.676Z,165.00
2023-02-10T11:40:22.036Z,166.00
2023-02-10T11:45:28.212Z,153.20
2023-02-10T11:50:34.262Z,154.60
2023-02-10T11:55:46.874Z,143.00
2023-02-10T12:00:59.990Z,157.60
2023-02-10T12:06:09.819Z,157.40
2023-02-10T12:11:21.740Z,149.80
2023-02-10T12:16:35.688Z,147.80
2023-02-10T12:21:53.676Z,139.60
2023-02-10T12:27:01.290Z,135.00
2023-02-10T12:32:22.259Z,147.20
2023-02-10T12:37:52.081Z,133.80
2023-02-10T12:43:06.581Z,126.80
2023-02-10T12:48:25.523Z,130.80
2023-02-10T12:53:34.884Z,130.60
2023-02-10T12:58:42.138Z,121.80
2023-02-10T13:03:50.037Z,131.20
2023-02-10T13:08:57.233Z,121.60
2023-02-10T13:14:02.351Z,117.80
2023-02-10T13:19:23.057Z,120.60
2023-02-10T13:24:30.376Z,107.60
2023-02-10T13:29:43.070Z,121.80
2023-02-10T13:34:51.577Z,111.40
2023-02-10T13:39:57.682Z,113.80
2023-02-10T13:45:04.069Z,112.20
2023-02-10T13:50:20.204Z,116.20
2023-02-10T13:55:46.065Z,103.80
2023-02-10T14:00:52.251Z,104.60
2023-02-10T14:06:00.347Z,102.80
2023-02-10T14:11:06.409Z,102.80
2023-02-10T14:16:30.291Z,99.80
2023-02-10T14:21:42.738Z,102.60
2023-02-10T14:26:48.105Z,97.40
2023-02-10T14:31:54.863Z,82.00
2023-02-10T14:37:00.948Z,86.20
2023-02-10T14:42:06.961Z,88.80
2023-02-10T14:47:17.502Z,75.60
2023-02-10T14:52:36.626Z,74.80
2023-02-10T14:57:46.227Z,78.60
2023-02-10T15:03:00.320Z,73.20
2023-02-10T15:08:08.304Z,72.40
2023-02-10T15:13:12.475Z,70.60
2023-02-10T15:18:21.118Z,68.20
2023-02-10T15:23:32.039Z,67.60
2023-02-10T15:28:35.744Z,69.40
2023-02-10T15:33:40.963Z,71.00
2023-02-10T15:38:47.544Z,61.40
2023-02-10T15:43:50.683Z,62.60
2023-02-10T15:48:53.511Z,63.00
2023-02-10T15:53:59.432Z,58.40
2023-02-10T15:59:02.225Z,57.00
2023-02-10T16:04:05.049Z,59.20
2023-02-10T16:09:09.290Z,56.40
2023-02-10T16:14:12.250Z,57.60
2023-02-10T16:19:16.714Z,51.80
2023-02-10T16:24:22.116Z,54.40
2023-02-10T16:29:27.543Z,57.60
2023-02-10T16:34:30.737Z,52.00
2023-02-10T16:39:35.235Z,53.60
2023-02-10T16:44:38.097Z,50.00
2023-02-10T16:49:41.048Z,61.40
2023-02-10T16:54:45.166Z,61.40
2023-02-10T16:59:49.765Z,66.80
2023-02-10T17:04:52.675Z,67.80
2023-02-10T17:09:56.863Z,68.80
2023-02-10T17:14:59.985Z,68.20
2023-02-10T17:20:03.426Z,64.60
2023-02-10T17:25:08.056Z,64.80
2023-02-10T17:30:13.455Z,64.20
2023-02-10T17:35:19.130Z,61.60
2023-02-10T17:40:35.339Z,63.00
2023-02-10T17:45:39.447Z,60.60
2023-02-10T17:50:42.325Z,64.80
2023-02-10T17:55:46.518Z,60.40
2023-02-10T18:00:49.389Z,59.20
2023-02-10T18:05:53.864Z,59.40
2023-02-10T18:10:58.023Z,63.60
2023-02-10T18:16:00.842Z,57.40
2023-02-10T18:21:04.399Z,53.20
2023-02-10T18:26:08.796Z,58.60
2023-02-10T18:31:15.010Z,58.40
2023-02-10T18:36:19.672Z,56.40
2023-02-10T18:41:23.911Z,55.00
2023-02-10T18:46:26.849Z,53.20
2023-02-10T18:51:31.292Z,54.60
2023-02-10T18:56:35.652Z,49.00
2023-02-10T19:01:38.432Z,57.60
2023-02-10T19:06:41.189Z,55.20
2023-02-10T19:11:45.432Z,49.80
2023-02-10T19:16:48.252Z,55.60
2023-02-10T19:21:51.135Z,51.20
2023-02-10T19:26:55.617Z,55.60
2023-02-10T19:31:58.560Z,47.20
2023-02-10T19:37:01.549Z,50.80
2023-02-10T19:42:05.917Z,46.20
2023-02-10T19:47:08.825Z,44.00
2023-02-10T19:52:11.560Z,44.20
2023-02-10T19:57:15.747Z,50.00
2023-02-10T20:02:20.380Z,44.60
2023-02-10T20:07:23.258Z,42.00
2023-02-10T20:12:28.102Z,40.80
2023-02-10T20:17:30.968Z,43.20
2023-02-10T20:22:34.504Z,41.00
2023-02-10T20:27:38.774Z,43.00
2023-02-10T20:32:41.544Z,41.20
2023-02-10T20:37:44.318Z,36.00
2023-02-10T20:42:50.048Z,42.60
2023-02-10T20:47:52.930Z,39.40
2023-02-10T20:52:55.670Z,34.80
2023-02-10T20:57:59.783Z,30.80
2023-02-10T21:03:02.611Z,36.60
2023-02-10T21:08:06.059Z,36.40
2023-02-10T21:13:10.339Z,36.00
2023-02-10T21:18:13.208Z,31.00
2023-02-10T21:23:16.044Z,31.00
2023-02-10T21:28:20.748Z,33.80
2023-02-10T21:33:24.336Z,27.80
2023-02-10T21:38:27.093Z,31.20
2023-02-10T21:43:31.353Z,32.60
2023-02-10T21:48:34.160Z,35.40
2023-02-10T21:53:37.203Z,26.75
2023-02-10T21:58:41.309Z,30.00
2023-02-10T22:03:44.266Z,27.25
2023-02-10T22:08:47.136Z,28.50
2023-02-10T22:13:52.334Z,30.75
2023-02-10T22:18:55.288Z,26.75
2023-02-10T22:23:58.577Z,24.50
2023-02-10T22:29:02.729Z,26.50
2023-02-10T22:34:07.256Z,25.00
2023-02-10T22:39:10.429Z,23.00
2023-02-10T22:44:17.249Z,28.25
2023-02-10T22:49:20.176Z,22.00
2023-02-10T22:54:22.944Z,25.00
2023-02-10T22:59:27.076Z,23.75
2023-02-10T23:04:30.013Z,23.00
2023-02-10T23:09:32.814Z,23.00
2023-02-10T23:14:36.994Z,22.75
2023-02-10T23:19:40.093Z,26.25
2023-02-10T23:24:42.882Z,21.00
2023-02-10T23:29:47.972Z,21.25
2023-02-10T23:34:51.813Z,23.00
2023-02-10T23:39:54.738Z,23.00
2023-02-10T23:44:59.130Z,24.25
2023-02-10T23:50:01.864Z,20.75
2023-02-10T23:55:04.860Z,20.00
